sensor_id;sensor_type;location;lat;lon;timestamp;pressure;altitude;pressure_sealevel;temperature;humidity
62634;BME280;48704;50.534;6.442;2024-03-25T00:01:23;94674.81;;;1.44;100.00
62634;BME280;48704;50.534;6.442;2024-03-25T00:03:49;94675.69;;;1.41;100.00
62634;BME280;48704;50.534;6.442;2024-03-25T00:06:14;94679.97;;;1.42;100.00
62634;BME280;48704;50.534;6.442;2024-03-25T00:08:40;94676.13;;;1.26;100.00
62634;BME280;48704;50.534;6.442;2024-03-25T00:11:05;94682.94;;;1.34;100.00
62634;BME280;48704;50.534;6.442;2024-03-25T00:13:30;94684.69;;;1.28;100.00
62634;BME280;48704;50.534;6.442;2024-03-25T00:15:56;94684.69;;;1.28;100.00
62634;BME280;48704;50.534;6.442;2024-03-25T00:18:21;94677.88;;;1.20;100.00
62634;BME280;48704;50.534;6.442;2024-03-25T00:20:46;94677.22;;;1.16;100.00
62634;BME280;48704;50.534;6.442;2024-03-25T00:23:12;94681.16;;;1.15;100.00
62634;BME280;48704;50.534;6.442;2024-03-25T00:25:37;94671.06;;;1.12;100.00
62634;BME280;48704;50.534;6.442;2024-03-25T00:28:02;94674.38;;;1.07;100.00
62634;BME280;48704;50.534;6.442;2024-03-25T00:30:29;94664.28;;;1.04;100.00
62634;BME280;48704;50.534;6.442;2024-03-25T00:32:54;94678.66;;;1.08;100.00
62634;BME280;48704;50.534;6.442;2024-03-25T00:35:20;94689.19;;;1.10;100.00
62634;BME280;48704;50.534;6.442;2024-03-25T00:37:45;94678.84;;;1.14;100.00
62634;BME280;48704;50.534;6.442;2024-03-25T00:40:11;94668.66;;;1.14;100.00
62634;BME280;48704;50.534;6.442;2024-03-25T00:42:37;94676.53;;;1.12;100.00
62634;BME280;48704;50.534;6.442;2024-03-25T00:45:02;94685.78;;;1.18;100.00
62634;BME280;48704;50.534;6.442;2024-03-25T00:47:27;94677.88;;;1.20;100.00
62634;BME280;48704;50.534;6.442;2024-03-25T00:49:53;94679.31;;;1.25;100.00
62634;BME280;48704;50.534;6.442;2024-03-25T00:52:18;94673.03;;;1.24;100.00
62634;BME280;48704;50.534;6.442;2024-03-25T00:54:44;94678.19;;;1.22;100.00
62634;BME280;48704;50.534;6.442;2024-03-25T00:57:09;94679.31;;;1.25;100.00
62634;BME280;48704;50.534;6.442;2024-03-25T00:59:37;94676.00;;;1.30;100.00
62634;BME280;48704;50.534;6.442;2024-03-25T01:02:02;94679.97;;;1.29;100.00
62634;BME280;48704;50.534;6.442;2024-03-25T01:04:27;94677.09;;;1.32;100.00
62634;BME280;48704;50.534;6.442;2024-03-25T01:06:54;94683.25;;;1.37;100.00
62634;BME280;48704;50.534;6.442;2024-03-25T01:09:19;94687.97;;;1.36;100.00
62634;BME280;48704;50.534;6.442;2024-03-25T01:11:44;94684.78;;;1.25;100.00
62634;BME280;48704;50.534;6.442;2024-03-25T01:14:09;94679.97;;;1.29;100.00
62634;BME280;48704;50.534;6.442;2024-03-25T01:16:35;94687.00;;;1.30;100.00
62634;BME280;48704;50.534;6.442;2024-03-25T01:19:00;94686.22;;;1.29;100.00
62634;BME280;48704;50.534;6.442;2024-03-25T01:21:26;94684.69;;;1.28;100.00
62634;BME280;48704;50.534;6.442;2024-03-25T01:23:51;94694.00;;;1.18;100.00
62634;BME280;48704;50.534;6.442;2024-03-25T01:26:16;94684.25;;;1.17;100.00
62634;BME280;48704;50.534;6.442;2024-03-25T01:28:42;94681.06;;;1.19;100.00
62634;BME280;48704;50.534;6.442;2024-03-25T01:31:07;94689.50;;;1.24;100.00
62634;BME280;48704;50.534;6.442;2024-03-25T01:33:33;94691.25;;;1.18;100.00
62634;BME280;48704;50.534;6.442;2024-03-25T01:35:59;94682.03;;;1.12;100.00
62634;BME280;48704;50.534;6.442;2024-03-25T01:38:24;94681.63;;;1.01;100.00
62634;BME280;48704;50.534;6.442;2024-03-25T01:40:50;94683.69;;;0.97;100.00
62634;BME280;48704;50.534;6.442;2024-03-25T01:43:15;94678.75;;;0.92;100.00
62634;BME280;48704;50.534;6.442;2024-03-25T01:45:41;94676.88;;;0.89;100.00
62634;BME280;48704;50.534;6.442;2024-03-25T01:48:08;94677.75;;;0.86;100.00
62634;BME280;48704;50.534;6.442;2024-03-25T01:50:37;94677.41;;;0.84;100.00
62634;BME280;48704;50.534;6.442;2024-03-25T01:53:04;94681.47;;;0.79;100.00
62634;BME280;48704;50.534;6.442;2024-03-25T01:55:30;94673.78;;;0.74;100.00
62634;BME280;48704;50.534;6.442;2024-03-25T01:57:57;94680.25;;;0.68;100.00
62634;BME280;48704;50.534;6.442;2024-03-25T02:00:24;94675.63;;;0.64;100.00
62634;BME280;48704;50.534;6.442;2024-03-25T02:02:52;94678.47;;;0.61;100.00
62634;BME280;48704;50.534;6.442;2024-03-25T02:05:18;94675.16;;;0.53;100.00
62634;BME280;48704;50.534;6.442;2024-03-25T02:07:44;94676.69;;;0.54;100.00
62634;BME280;48704;50.534;6.442;2024-03-25T02:10:10;94674.16;;;0.47;100.00
62634;BME280;48704;50.534;6.442;2024-03-25T02:12:37;94676.22;;;0.43;100.00
62634;BME280;48704;50.534;6.442;2024-03-25T02:15:03;94674.34;;;0.40;100.00
62634;BME280;48704;50.534;6.442;2024-03-25T02:17:29;94671.72;;;0.37;100.00
62634;BME280;48704;50.534;6.442;2024-03-25T02:19:55;94663.94;;;0.35;100.00
62634;BME280;48704;50.534;6.442;2024-03-25T02:22:20;94658.91;;;0.33;100.00
62634;BME280;48704;50.534;6.442;2024-03-25T02:24:46;94662.75;;;0.36;100.00
62634;BME280;48704;50.534;6.442;2024-03-25T02:27:12;94661.53;;;0.37;100.00
62634;BME280;48704;50.534;6.442;2024-03-25T02:29:40;94650.25;;;0.35;100.00
62634;BME280;48704;50.534;6.442;2024-03-25T02:32:06;94653.00;;;0.35;100.00
62634;BME280;48704;50.534;6.442;2024-03-25T02:34:36;94653.09;;;0.31;100.00
62634;BME280;48704;50.534;6.442;2024-03-25T02:37:01;94641.88;;;0.26;100.00
62634;BME280;48704;50.534;6.442;2024-03-25T02:39:27;94640.50;;;0.34;100.00
62634;BME280;48704;50.534;6.442;2024-03-25T02:41:53;94648.03;;;0.30;100.00
62634;BME280;48704;50.534;6.442;2024-03-25T02:44:18;94639.16;;;0.26;100.00
62634;BME280;48704;50.534;6.442;2024-03-25T02:46:44;94636.84;;;0.24;100.00
62634;BME280;48704;50.534;6.442;2024-03-25T02:49:09;94641.53;;;0.24;100.00
62634;BME280;48704;50.534;6.442;2024-03-25T02:51:35;94635.97;;;0.27;100.00
62634;BME280;48704;50.534;6.442;2024-03-25T02:54:00;94633.56;;;0.29;100.00
62634;BME280;48704;50.534;6.442;2024-03-25T02:56:25;94639.16;;;0.26;100.00
62634;BME280;48704;50.534;6.442;2024-03-25T02:58:51;94628.03;;;0.17;100.00
62634;BME280;48704;50.534;6.442;2024-03-25T03:01:16;94634.53;;;0.23;100.00
62634;BME280;48704;50.534;6.442;2024-03-25T03:03:42;94630.16;;;0.25;100.00
62634;BME280;48704;50.534;6.442;2024-03-25T03:06:07;94628.72;;;0.21;100.00
62634;BME280;48704;50.534;6.442;2024-03-25T03:08:32;94625.63;;;0.19;100.00
62634;BME280;48704;50.534;6.442;2024-03-25T03:10:58;94624.25;;;0.27;100.00
62634;BME280;48704;50.534;6.442;2024-03-25T03:13:23;94631.34;;;0.24;100.00
62634;BME280;48704;50.534;6.442;2024-03-25T03:15:48;94624.78;;;0.22;100.00
62634;BME280;48704;50.534;6.442;2024-03-25T03:18:13;94636.06;;;0.24;100.00
62634;BME280;48704;50.534;6.442;2024-03-25T03:20:39;94627.47;;;0.09;100.00
62634;BME280;48704;50.534;6.442;2024-03-25T03:23:04;94624.06;;;0.05;100.00
62634;BME280;48704;50.534;6.442;2024-03-25T03:25:30;94624.69;;;-0.04;100.00
62634;BME280;48704;50.534;6.442;2024-03-25T03:27:56;94625.09;;;-0.34;100.00
62634;BME280;48704;50.534;6.442;2024-03-25T03:30:21;94625.66;;;-0.55;100.00
62634;BME280;48704;50.534;6.442;2024-03-25T03:32:46;94623.50;;;-0.64;100.00
62634;BME280;48704;50.534;6.442;2024-03-25T03:35:12;94626.34;;;-0.84;100.00
62634;BME280;48704;50.534;6.442;2024-03-25T03:37:37;94632.84;;;-0.94;100.00
62634;BME280;48704;50.534;6.442;2024-03-25T03:40:03;94632.44;;;-0.76;100.00
62634;BME280;48704;50.534;6.442;2024-03-25T03:42:31;94637.47;;;-0.91;100.00
62634;BME280;48704;50.534;6.442;2024-03-25T03:44:56;94630.09;;;-0.61;100.00
62634;BME280;48704;50.534;6.442;2024-03-25T03:47:21;94630.09;;;-0.61;100.00
62634;BME280;48704;50.534;6.442;2024-03-25T03:49:47;94640.94;;;-0.42;100.00
62634;BME280;48704;50.534;6.442;2024-03-25T03:52:12;94633.34;;;-0.50;100.00
62634;BME280;48704;50.534;6.442;2024-03-25T03:54:38;94634.28;;;-0.57;100.00
62634;BME280;48704;50.534;6.442;2024-03-25T03:57:04;94628.81;;;-0.73;100.00
62634;BME280;48704;50.534;6.442;2024-03-25T03:59:30;94623.50;;;-0.64;100.00
62634;BME280;48704;50.534;6.442;2024-03-25T04:01:56;94621.19;;;-0.65;100.00
62634;BME280;48704;50.534;6.442;2024-03-25T04:04:21;94615.56;;;-0.58;100.00
62634;BME280;48704;50.534;6.442;2024-03-25T04:06:46;94618.63;;;-0.56;100.00
62634;BME280;48704;50.534;6.442;2024-03-25T04:09:12;94615.72;;;-0.65;100.00
62634;BME280;48704;50.534;6.442;2024-03-25T04:11:38;94612.66;;;-0.68;100.00
62634;BME280;48704;50.534;6.442;2024-03-25T04:14:04;94618.63;;;-0.56;100.00
62634;BME280;48704;50.534;6.442;2024-03-25T04:16:29;94616.75;;;-0.43;100.00
62634;BME280;48704;50.534;6.442;2024-03-25T04:18:55;94608.66;;;-0.34;100.00
62634;BME280;48704;50.534;6.442;2024-03-25T04:21:22;94614.31;;;-0.25;100.00
62634;BME280;48704;50.534;6.442;2024-03-25T04:23:47;94609.25;;;-0.26;100.00
62634;BME280;48704;50.534;6.442;2024-03-25T04:26:14;94606.00;;;-0.21;100.00
62634;BME280;48704;50.534;6.442;2024-03-25T04:28:40;94614.63;;;-0.23;100.00
62634;BME280;48704;50.534;6.442;2024-03-25T04:31:07;94610.03;;;-0.26;100.00
62634;BME280;48704;50.534;6.442;2024-03-25T04:33:32;94616.88;;;-0.34;100.00
62634;BME280;48704;50.534;6.442;2024-03-25T04:35:58;94620.28;;;-0.30;100.00
62634;BME280;48704;50.534;6.442;2024-03-25T04:38:23;94618.84;;;-0.35;100.00
62634;BME280;48704;50.534;6.442;2024-03-25T04:40:49;94620.28;;;-0.30;100.00
62634;BME280;48704;50.534;6.442;2024-03-25T04:43:15;94607.38;;;-0.29;100.00
62634;BME280;48704;50.534;6.442;2024-03-25T04:45:40;94616.59;;;-0.23;100.00
62634;BME280;48704;50.534;6.442;2024-03-25T04:48:06;94606.09;;;-0.25;100.00
62634;BME280;48704;50.534;6.442;2024-03-25T04:50:33;94611.97;;;-0.39;100.00
62634;BME280;48704;50.534;6.442;2024-03-25T04:52:58;94612.94;;;-0.33;100.00
62634;BME280;48704;50.534;6.442;2024-03-25T04:55:23;94619.31;;;-0.69;100.00
62634;BME280;48704;50.534;6.442;2024-03-25T04:57:48;94616.25;;;-0.54;100.00
62634;BME280;48704;50.534;6.442;2024-03-25T05:00:14;94622.56;;;-0.57;100.00
62634;BME280;48704;50.534;6.442;2024-03-25T05:02:39;94625.81;;;-0.62;100.00
62634;BME280;48704;50.534;6.442;2024-03-25T05:05:05;94632.00;;;-0.91;100.00
62634;BME280;48704;50.534;6.442;2024-03-25T05:07:32;94630.25;;;-1.01;100.00
62634;BME280;48704;50.534;6.442;2024-03-25T05:09:57;94629.06;;;-1.00;100.00
62634;BME280;48704;50.534;6.442;2024-03-25T05:12:22;94625.50;;;-0.81;100.00
62634;BME280;48704;50.534;6.442;2024-03-25T05:14:48;94637.47;;;-0.91;100.00
62634;BME280;48704;50.534;6.442;2024-03-25T05:17:13;94629.34;;;-0.94;100.00
62634;BME280;48704;50.534;6.442;2024-03-25T05:19:38;94628.91;;;-0.93;100.00
62634;BME280;48704;50.534;6.442;2024-03-25T05:22:04;94625.13;;;-0.99;100.00
62634;BME280;48704;50.534;6.442;2024-03-25T05:24:29;94636.94;;;-1.02;100.00
62634;BME280;48704;50.534;6.442;2024-03-25T05:26:54;94627.59;;;-1.05;100.00
62634;BME280;48704;50.534;6.442;2024-03-25T05:29:20;94632.22;;;-1.02;100.00
62634;BME280;48704;50.534;6.442;2024-03-25T05:32:00;94625.31;;;-1.06;100.00
62634;BME280;48704;50.534;6.442;2024-03-25T05:34:26;94629.56;;;-1.05;100.00
62634;BME280;48704;50.534;6.442;2024-03-25T05:36:52;94631.97;;;-1.07;100.00
62634;BME280;48704;50.534;6.442;2024-03-25T05:39:17;94633.69;;;-0.97;100.00
62634;BME280;48704;50.534;6.442;2024-03-25T05:41:43;94633.53;;;-0.90;100.00
62634;BME280;48704;50.534;6.442;2024-03-25T05:44:08;94630.19;;;-0.81;100.00
62634;BME280;48704;50.534;6.442;2024-03-25T05:46:33;94636.78;;;-0.79;100.00
62634;BME280;48704;50.534;6.442;2024-03-25T05:49:03;94647.19;;;-0.74;100.00
62634;BME280;48704;50.534;6.442;2024-03-25T05:51:31;94637.97;;;-0.80;100.00
62634;BME280;48704;50.534;6.442;2024-03-25T05:53:58;94650.81;;;-0.77;100.00
62634;BME280;48704;50.534;6.442;2024-03-25T05:56:24;94642.69;;;-0.80;100.00
62634;BME280;48704;50.534;6.442;2024-03-25T05:58:55;94639.31;;;-0.72;100.00
62634;BME280;48704;50.534;6.442;2024-03-25T06:01:21;94640.19;;;-0.58;100.00
62634;BME280;48704;50.534;6.442;2024-03-25T06:03:47;94639.31;;;-0.55;100.00
62634;BME280;48704;50.534;6.442;2024-03-25T06:06:12;94647.44;;;-0.52;100.00
62634;BME280;48704;50.534;6.442;2024-03-25T06:08:37;94644.13;;;-0.43;100.00
62634;BME280;48704;50.534;6.442;2024-03-25T06:11:03;94640.19;;;-0.42;100.00
62634;BME280;48704;50.534;6.442;2024-03-25T06:13:28;94638.56;;;-0.40;100.00
62634;BME280;48704;50.534;6.442;2024-03-25T06:15:54;94634.94;;;-0.37;100.00
62634;BME280;48704;50.534;6.442;2024-03-25T06:18:19;94637.50;;;-0.29;100.00
62634;BME280;48704;50.534;6.442;2024-03-25T06:20:45;94651.09;;;-0.26;100.00
62634;BME280;48704;50.534;6.442;2024-03-25T06:23:10;94645.19;;;-0.24;100.00
62634;BME280;48704;50.534;6.442;2024-03-25T06:25:35;94646.19;;;-0.18;100.00
62634;BME280;48704;50.534;6.442;2024-03-25T06:28:03;94646.44;;;-0.13;100.00
62634;BME280;48704;50.534;6.442;2024-03-25T06:30:28;94648.16;;;-0.03;100.00
62634;BME280;48704;50.534;6.442;2024-03-25T06:33:12;94645.84;;;-0.04;100.00
62634;BME280;48704;50.534;6.442;2024-03-25T06:35:56;94642.78;;;0.07;100.00
62634;BME280;48704;50.534;6.442;2024-03-25T06:38:21;94649.13;;;0.04;100.00
62634;BME280;48704;50.534;6.442;2024-03-25T06:40:47;94650.66;;;0.05;100.00
62634;BME280;48704;50.534;6.442;2024-03-25T06:43:12;94653.97;;;-0.01;100.00
62634;BME280;48704;50.534;6.442;2024-03-25T06:45:37;94651.44;;;0.05;100.00
62634;BME280;48704;50.534;6.442;2024-03-25T06:48:03;94648.94;;;0.11;100.00
62634;BME280;48704;50.534;6.442;2024-03-25T06:50:28;94650.63;;;0.21;100.00
62634;BME280;48704;50.534;6.442;2024-03-25T06:52:54;94650.44;;;0.28;100.00
62634;BME280;48704;50.534;6.442;2024-03-25T06:55:19;94644.63;;;0.26;100.00
62634;BME280;48704;50.534;6.442;2024-03-25T06:57:48;94647.94;;;0.46;100.00
62634;BME280;48704;50.534;6.442;2024-03-25T07:00:13;94652.56;;;0.49;100.00
62634;BME280;48704;50.534;6.442;2024-03-25T07:02:39;94650.63;;;0.62;100.00
62634;BME280;48704;50.534;6.442;2024-03-25T07:05:05;94660.72;;;0.65;100.00
62634;BME280;48704;50.534;6.442;2024-03-25T07:07:31;94646.91;;;0.82;100.00
62634;BME280;48704;50.534;6.442;2024-03-25T07:09:56;94651.53;;;0.85;100.00
62634;BME280;48704;50.534;6.442;2024-03-25T07:12:22;94643.63;;;0.87;100.00
62634;BME280;48704;50.534;6.442;2024-03-25T07:14:47;94642.97;;;0.95;100.00
62634;BME280;48704;50.534;6.442;2024-03-25T07:17:12;94643.31;;;0.97;100.00
62634;BME280;48704;50.534;6.442;2024-03-25T07:19:38;94636.59;;;0.86;100.00
62634;BME280;48704;50.534;6.442;2024-03-25T07:22:03;94640.44;;;1.14;100.00
62634;BME280;48704;50.534;6.442;2024-03-25T07:24:28;94638.78;;;1.42;100.00
62634;BME280;48704;50.534;6.442;2024-03-25T07:26:54;94648.19;;;1.66;100.00
62634;BME280;48704;50.534;6.442;2024-03-25T07:29:19;94640.91;;;1.72;100.00
62634;BME280;48704;50.534;6.442;2024-03-25T07:31:44;94639.81;;;1.82;100.00
62634;BME280;48704;50.534;6.442;2024-03-25T07:34:10;94636.19;;;2.07;100.00
62634;BME280;48704;50.534;6.442;2024-03-25T07:36:37;94638.09;;;1.97;100.00
62634;BME280;48704;50.534;6.442;2024-03-25T07:39:02;94638.50;;;2.09;100.00
62634;BME280;48704;50.534;6.442;2024-03-25T07:41:30;94641.81;;;2.04;100.00
62634;BME280;48704;50.534;6.442;2024-03-25T07:43:55;94641.81;;;1.69;100.00
62634;BME280;48704;50.534;6.442;2024-03-25T07:46:21;94645.53;;;1.75;100.00
62634;BME280;48704;50.534;6.442;2024-03-25T07:48:46;94645.41;;;1.79;100.00
62634;BME280;48704;50.534;6.442;2024-03-25T07:51:11;94639.28;;;1.62;100.00
62634;BME280;48704;50.534;6.442;2024-03-25T07:53:37;94649.81;;;1.76;100.00
62634;BME280;48704;50.534;6.442;2024-03-25T07:56:02;94643.09;;;1.77;100.00
62634;BME280;48704;50.534;6.442;2024-03-25T07:58:30;94640.16;;;2.06;100.00
62634;BME280;48704;50.534;6.442;2024-03-25T08:00:55;94642.53;;;2.17;100.00
62634;BME280;48704;50.534;6.442;2024-03-25T08:03:21;94636.91;;;2.42;100.00
62634;BME280;48704;50.534;6.442;2024-03-25T08:05:47;94645.66;;;2.72;100.00
62634;BME280;48704;50.534;6.442;2024-03-25T08:08:12;94643.59;;;2.85;100.00
62634;BME280;48704;50.534;6.442;2024-03-25T08:10:38;94642.50;;;2.82;100.00
62634;BME280;48704;50.534;6.442;2024-03-25T08:13:03;94648.50;;;2.90;100.00
62634;BME280;48704;50.534;6.442;2024-03-25T08:15:28;94643.13;;;2.86;100.00
62634;BME280;48704;50.534;6.442;2024-03-25T08:17:54;94649.75;;;2.98;100.00
62634;BME280;48704;50.534;6.442;2024-03-25T08:20:19;94651.13;;;2.93;100.00
62634;BME280;48704;50.534;6.442;2024-03-25T08:22:44;94640.00;;;3.06;100.00
62634;BME280;48704;50.534;6.442;2024-03-25T08:25:11;94641.97;;;3.36;100.00
62634;BME280;48704;50.534;6.442;2024-03-25T08:27:37;94632.78;;;3.30;100.00
62634;BME280;48704;50.534;6.442;2024-03-25T08:30:03;94634.34;;;3.50;100.00
62634;BME280;48704;50.534;6.442;2024-03-25T08:32:28;94630.16;;;3.94;100.00
62634;BME280;48704;50.534;6.442;2024-03-25T08:34:54;94632.16;;;4.03;100.00
62634;BME280;48704;50.534;6.442;2024-03-25T08:37:19;94633.53;;;4.26;100.00
62634;BME280;48704;50.534;6.442;2024-03-25T08:39:45;94629.56;;;3.99;100.00
62634;BME280;48704;50.534;6.442;2024-03-25T08:42:10;94633.84;;;4.28;100.00
62634;BME280;48704;50.534;6.442;2024-03-25T08:44:36;94635.66;;;4.49;100.00
62634;BME280;48704;50.534;6.442;2024-03-25T08:47:01;94634.13;;;4.48;100.00
62634;BME280;48704;50.534;6.442;2024-03-25T08:49:26;94622.19;;;4.51;100.00
62634;BME280;48704;50.534;6.442;2024-03-25T08:51:52;94621.22;;;4.82;100.00
62634;BME280;48704;50.534;6.442;2024-03-25T08:54:17;94618.84;;;5.08;100.00
62634;BME280;48704;50.534;6.442;2024-03-25T08:56:42;94616.59;;;4.88;100.00
62634;BME280;48704;50.534;6.442;2024-03-25T08:59:08;94609.16;;;5.12;100.00
62634;BME280;48704;50.534;6.442;2024-03-25T09:01:34;94605.41;;;5.24;100.00
62634;BME280;48704;50.534;6.442;2024-03-25T09:04:00;94609.75;;;5.49;100.00
62634;BME280;48704;50.534;6.442;2024-03-25T09:06:25;94609.81;;;5.64;100.00
62634;BME280;48704;50.534;6.442;2024-03-25T09:08:50;94599.34;;;5.68;100.00
62634;BME280;48704;50.534;6.442;2024-03-25T09:11:34;94598.16;;;5.93;100.00
62634;BME280;48704;50.534;6.442;2024-03-25T09:14:00;94591.72;;;6.11;100.00
62634;BME280;48704;50.534;6.442;2024-03-25T09:16:28;94593.41;;;5.93;100.00
62634;BME280;48704;50.534;6.442;2024-03-25T09:18:53;94589.59;;;6.06;100.00
62634;BME280;48704;50.534;6.442;2024-03-25T09:21:18;94597.97;;;5.96;100.00
62634;BME280;48704;50.534;6.442;2024-03-25T09:23:44;94590.06;;;6.28;100.00
62634;BME280;48704;50.534;6.442;2024-03-25T09:26:09;94582.41;;;6.23;100.00
62634;BME280;48704;50.534;6.442;2024-03-25T09:28:35;94583.41;;;6.49;100.00
62634;BME280;48704;50.534;6.442;2024-03-25T09:31:01;94577.06;;;6.34;100.00
62634;BME280;48704;50.534;6.442;2024-03-25T09:33:26;94580.34;;;6.47;100.00
62634;BME280;48704;50.534;6.442;2024-03-25T09:35:51;94574.22;;;6.43;100.00
62634;BME280;48704;50.534;6.442;2024-03-25T09:38:17;94577.66;;;6.38;100.00
62634;BME280;48704;50.534;6.442;2024-03-25T09:40:42;94574.41;;;6.25;100.00
62634;BME280;48704;50.534;6.442;2024-03-25T09:43:32;94568.72;;;6.58;100.00
62634;BME280;48704;50.534;6.442;2024-03-25T09:45:57;94571.78;;;6.60;100.00
62634;BME280;48704;50.534;6.442;2024-03-25T09:48:24;94576.56;;;6.59;100.00
62634;BME280;48704;50.534;6.442;2024-03-25T09:50:50;94569.09;;;6.80;100.00
62634;BME280;48704;50.534;6.442;2024-03-25T09:53:15;94560.69;;;7.04;100.00
62634;BME280;48704;50.534;6.442;2024-03-25T09:55:41;94562.47;;;7.57;100.00
62634;BME280;48704;50.534;6.442;2024-03-25T09:58:07;94549.91;;;8.22;100.00
62634;BME280;48704;50.534;6.442;2024-03-25T10:00:33;94541.41;;;8.78;94.72
62634;BME280;48704;50.534;6.442;2024-03-25T10:02:58;94555.69;;;8.39;88.68
62634;BME280;48704;50.534;6.442;2024-03-25T10:05:23;94555.34;;;7.70;89.19
62634;BME280;48704;50.534;6.442;2024-03-25T10:07:49;94555.47;;;7.82;92.12
62634;BME280;48704;50.534;6.442;2024-03-25T10:10:19;94551.13;;;7.75;81.74
62634;BME280;48704;50.534;6.442;2024-03-25T10:12:45;94537.63;;;8.49;90.56
62634;BME280;48704;50.534;6.442;2024-03-25T10:15:15;94543.00;;;9.16;78.65
62634;BME280;48704;50.534;6.442;2024-03-25T10:17:41;94542.00;;;8.61;81.58
62634;BME280;48704;50.534;6.442;2024-03-25T10:20:07;94541.56;;;7.76;82.30
62634;BME280;48704;50.534;6.442;2024-03-25T10:22:44;94541.34;;;7.24;85.19
62634;BME280;48704;50.534;6.442;2024-03-25T10:25:29;94531.59;;;6.64;88.21
62634;BME280;48704;50.534;6.442;2024-03-25T10:27:59;94529.00;;;6.46;85.40
62634;BME280;48704;50.534;6.442;2024-03-25T10:30:28;94529.72;;;7.05;89.41
62634;BME280;48704;50.534;6.442;2024-03-25T10:33:07;94521.81;;;8.35;81.19
62634;BME280;48704;50.534;6.442;2024-03-25T10:35:35;94513.59;;;8.72;75.77
62634;BME280;48704;50.534;6.442;2024-03-25T10:38:08;94511.81;;;8.23;76.40
62634;BME280;48704;50.534;6.442;2024-03-25T10:40:37;94510.97;;;7.50;80.76
62634;BME280;48704;50.534;6.442;2024-03-25T10:43:05;94503.00;;;7.58;81.53
62634;BME280;48704;50.534;6.442;2024-03-25T10:45:43;94504.56;;;7.44;79.06
62634;BME280;48704;50.534;6.442;2024-03-25T10:48:19;94504.44;;;7.33;76.70
62634;BME280;48704;50.534;6.442;2024-03-25T10:50:49;94501.31;;;7.46;75.23
62634;BME280;48704;50.534;6.442;2024-03-25T10:53:17;94514.91;;;7.44;77.82
62634;BME280;48704;50.534;6.442;2024-03-25T10:55:48;94506.38;;;7.27;79.94
62634;BME280;48704;50.534;6.442;2024-03-25T10:58:16;94504.38;;;7.48;76.41
62634;BME280;48704;50.534;6.442;2024-03-25T11:00:42;94504.09;;;8.07;75.52
62634;BME280;48704;50.534;6.442;2024-03-25T11:03:08;94498.00;;;7.62;72.34
62634;BME280;48704;50.534;6.442;2024-03-25T11:05:34;94499.28;;;7.26;69.18
62634;BME280;48704;50.534;6.442;2024-03-25T11:08:13;94488.69;;;7.24;69.12
62634;BME280;48704;50.534;6.442;2024-03-25T11:10:42;94494.13;;;7.33;66.77
62634;BME280;48704;50.534;6.442;2024-03-25T11:13:11;94487.53;;;8.18;62.94
62634;BME280;48704;50.534;6.442;2024-03-25T11:15:41;94483.63;;;8.30;66.85
62634;BME280;48704;50.534;6.442;2024-03-25T11:18:11;94476.25;;;7.55;65.41
62634;BME280;48704;50.534;6.442;2024-03-25T11:20:37;94475.41;;;7.69;69.42
62634;BME280;48704;50.534;6.442;2024-03-25T11:23:16;94467.50;;;7.82;68.33
62634;BME280;48704;50.534;6.442;2024-03-25T11:25:42;94458.25;;;7.91;67.50
62634;BME280;48704;50.534;6.442;2024-03-25T11:28:11;94459.38;;;8.25;68.01
62634;BME280;48704;50.534;6.442;2024-03-25T11:30:37;94446.56;;;9.27;67.58
62634;BME280;48704;50.534;6.442;2024-03-25T11:33:04;94445.69;;;10.85;62.97
62634;BME280;48704;50.534;6.442;2024-03-25T11:35:38;94442.84;;;11.41;56.54
62634;BME280;48704;50.534;6.442;2024-03-25T11:38:04;94446.59;;;10.09;62.87
62634;BME280;48704;50.534;6.442;2024-03-25T11:40:29;94442.78;;;9.36;60.53
62634;BME280;48704;50.534;6.442;2024-03-25T11:42:55;94428.63;;;8.86;60.19
62634;BME280;48704;50.534;6.442;2024-03-25T11:45:21;94433.19;;;8.89;63.08
62634;BME280;48704;50.534;6.442;2024-03-25T11:47:48;94434.69;;;8.90;61.29
62634;BME280;48704;50.534;6.442;2024-03-25T11:50:19;94428.22;;;9.04;60.83
62634;BME280;48704;50.534;6.442;2024-03-25T11:52:45;94435.94;;;8.57;61.10
62634;BME280;48704;50.534;6.442;2024-03-25T11:55:16;94423.50;;;8.79;61.62
62634;BME280;48704;50.534;6.442;2024-03-25T11:57:42;94414.53;;;8.32;59.36
62634;BME280;48704;50.534;6.442;2024-03-25T12:00:08;94414.69;;;8.23;63.88
62634;BME280;48704;50.534;6.442;2024-03-25T12:02:37;94412.94;;;8.25;61.27
62634;BME280;48704;50.534;6.442;2024-03-25T12:05:07;94412.06;;;9.08;62.10
62634;BME280;48704;50.534;6.442;2024-03-25T12:07:33;94404.69;;;10.29;60.97
62634;BME280;48704;50.534;6.442;2024-03-25T12:10:01;94409.28;;;11.63;57.77
62634;BME280;48704;50.534;6.442;2024-03-25T12:12:44;94403.38;;;12.30;58.48
62634;BME280;48704;50.534;6.442;2024-03-25T12:15:10;94400.19;;;12.50;53.10
62634;BME280;48704;50.534;6.442;2024-03-25T12:17:36;94392.81;;;12.83;51.13
62634;BME280;48704;50.534;6.442;2024-03-25T12:20:03;94379.78;;;13.15;48.90
62634;BME280;48704;50.534;6.442;2024-03-25T12:22:30;94385.91;;;12.59;47.72
62634;BME280;48704;50.534;6.442;2024-03-25T12:25:00;94383.81;;;12.95;48.57
62634;BME280;48704;50.534;6.442;2024-03-25T12:27:27;94374.00;;;12.83;45.37
62634;BME280;48704;50.534;6.442;2024-03-25T12:30:03;94369.19;;;11.71;48.24
62634;BME280;48704;50.534;6.442;2024-03-25T12:32:39;94360.56;;;13.06;47.44
62634;BME280;48704;50.534;6.442;2024-03-25T12:35:16;94360.81;;;13.76;47.06
62634;BME280;48704;50.534;6.442;2024-03-25T12:37:45;94355.16;;;13.14;46.86
62634;BME280;48704;50.534;6.442;2024-03-25T12:40:12;94353.56;;;14.04;45.50
62634;BME280;48704;50.534;6.442;2024-03-25T12:42:39;94350.22;;;13.25;46.08
62634;BME280;48704;50.534;6.442;2024-03-25T12:45:05;94349.91;;;12.50;46.48
62634;BME280;48704;50.534;6.442;2024-03-25T12:47:31;94355.69;;;13.36;47.45
62634;BME280;48704;50.534;6.442;2024-03-25T12:49:57;94346.63;;;13.30;47.22
62634;BME280;48704;50.534;6.442;2024-03-25T12:52:22;94333.63;;;12.24;48.71
62634;BME280;48704;50.534;6.442;2024-03-25T12:54:47;94325.28;;;11.78;48.21
62634;BME280;48704;50.534;6.442;2024-03-25T12:57:13;94311.28;;;10.23;49.79